METAR Formatted Surface Weather Observation
Issued by NWS

Home | Current Version | Previous Version | Text Only | Print | Product List | Glossary On
Versions: 1 2 3 4 5 6 7 8 9 10 11 12
802
SAUS43 KDTX 241653
MTRP58
METAR KP58 241651Z AUTO 18007G15KT 140V220 27/17 A3001 RMK AO1
SLP154 T02670172 $



USA.gov is the U.S. government's official web portal to all federal, state and local government web resources and services.